sensor_id;sensor_type;location;lat;lon;timestamp;P1;durP1;ratioP1;P2;durP2;ratioP2
19043;SDS011;9654;52.302;8.120;2023-04-23T00:01:21;44.90;;;24.93;;
19043;SDS011;9654;52.302;8.120;2023-04-23T00:03:51;51.83;;;26.80;;
19043;SDS011;9654;52.302;8.120;2023-04-23T00:06:22;50.07;;;27.33;;
19043;SDS011;9654;52.302;8.120;2023-04-23T00:08:51;53.17;;;28.20;;
19043;SDS011;9654;52.302;8.120;2023-04-23T00:11:19;43.37;;;23.40;;
19043;SDS011;9654;52.302;8.120;2023-04-23T00:13:46;47.30;;;25.73;;
19043;SDS011;9654;52.302;8.120;2023-04-23T00:16:14;43.03;;;23.37;;
19043;SDS011;9654;52.302;8.120;2023-04-23T00:18:43;55.37;;;26.67;;
19043;SDS011;9654;52.302;8.120;2023-04-23T00:21:10;51.20;;;24.87;;
19043;SDS011;9654;52.302;8.120;2023-04-23T00:23:37;52.20;;;27.00;;
19043;SDS011;9654;52.302;8.120;2023-04-23T00:26:04;53.73;;;26.67;;
19043;SDS011;9654;52.302;8.120;2023-04-23T00:28:31;55.43;;;27.97;;
19043;SDS011;9654;52.302;8.120;2023-04-23T00:30:58;56.83;;;29.40;;
19043;SDS011;9654;52.302;8.120;2023-04-23T00:33:24;57.83;;;29.33;;
19043;SDS011;9654;52.302;8.120;2023-04-23T00:35:53;61.07;;;30.77;;
19043;SDS011;9654;52.302;8.120;2023-04-23T00:38:19;56.80;;;28.53;;
19043;SDS011;9654;52.302;8.120;2023-04-23T00:40:46;55.23;;;26.60;;
19043;SDS011;9654;52.302;8.120;2023-04-23T00:43:14;46.47;;;25.93;;
19043;SDS011;9654;52.302;8.120;2023-04-23T00:45:41;43.97;;;24.47;;
19043;SDS011;9654;52.302;8.120;2023-04-23T00:48:08;42.93;;;23.10;;
19043;SDS011;9654;52.302;8.120;2023-04-23T00:50:36;42.73;;;23.77;;
19043;SDS011;9654;52.302;8.120;2023-04-23T00:53:04;39.73;;;23.33;;
19043;SDS011;9654;52.302;8.120;2023-04-23T00:55:31;44.17;;;23.23;;
19043;SDS011;9654;52.302;8.120;2023-04-23T00:57:59;45.83;;;23.53;;
19043;SDS011;9654;52.302;8.120;2023-04-23T01:00:26;40.87;;;22.07;;
19043;SDS011;9654;52.302;8.120;2023-04-23T01:02:53;40.30;;;22.40;;
19043;SDS011;9654;52.302;8.120;2023-04-23T01:05:20;40.87;;;22.83;;
19043;SDS011;9654;52.302;8.120;2023-04-23T01:07:48;42.47;;;24.07;;
19043;SDS011;9654;52.302;8.120;2023-04-23T01:10:16;45.87;;;23.17;;
19043;SDS011;9654;52.302;8.120;2023-04-23T01:12:43;40.13;;;23.57;;
19043;SDS011;9654;52.302;8.120;2023-04-23T01:15:10;41.10;;;23.60;;
19043;SDS011;9654;52.302;8.120;2023-04-23T01:17:37;42.80;;;22.67;;
19043;SDS011;9654;52.302;8.120;2023-04-23T01:20:04;41.67;;;22.83;;
19043;SDS011;9654;52.302;8.120;2023-04-23T01:22:34;45.73;;;24.77;;
19043;SDS011;9654;52.302;8.120;2023-04-23T01:25:01;43.97;;;25.10;;
19043;SDS011;9654;52.302;8.120;2023-04-23T01:27:28;45.47;;;24.57;;
19043;SDS011;9654;52.302;8.120;2023-04-23T01:29:56;42.67;;;23.23;;
19043;SDS011;9654;52.302;8.120;2023-04-23T01:32:23;46.40;;;26.17;;
19043;SDS011;9654;52.302;8.120;2023-04-23T01:34:50;41.90;;;23.80;;
19043;SDS011;9654;52.302;8.120;2023-04-23T01:37:19;42.93;;;23.73;;
19043;SDS011;9654;52.302;8.120;2023-04-23T01:39:48;45.73;;;26.10;;
19043;SDS011;9654;52.302;8.120;2023-04-23T01:42:16;45.17;;;26.53;;
19043;SDS011;9654;52.302;8.120;2023-04-23T01:44:43;45.93;;;25.47;;
19043;SDS011;9654;52.302;8.120;2023-04-23T01:47:09;48.53;;;26.87;;
19043;SDS011;9654;52.302;8.120;2023-04-23T01:49:36;46.20;;;25.80;;
19043;SDS011;9654;52.302;8.120;2023-04-23T01:52:03;48.10;;;25.60;;
19043;SDS011;9654;52.302;8.120;2023-04-23T01:54:30;46.40;;;26.13;;
19043;SDS011;9654;52.302;8.120;2023-04-23T01:56:58;46.60;;;26.97;;
19043;SDS011;9654;52.302;8.120;2023-04-23T01:59:25;48.60;;;25.90;;
19043;SDS011;9654;52.302;8.120;2023-04-23T02:01:52;51.73;;;28.63;;
19043;SDS011;9654;52.302;8.120;2023-04-23T02:04:19;50.20;;;28.90;;
19043;SDS011;9654;52.302;8.120;2023-04-23T02:06:46;47.07;;;26.60;;
19043;SDS011;9654;52.302;8.120;2023-04-23T02:09:15;49.27;;;27.53;;
19043;SDS011;9654;52.302;8.120;2023-04-23T02:11:42;50.80;;;27.37;;
19043;SDS011;9654;52.302;8.120;2023-04-23T02:14:10;50.57;;;28.63;;
19043;SDS011;9654;52.302;8.120;2023-04-23T02:16:38;51.07;;;28.27;;
19043;SDS011;9654;52.302;8.120;2023-04-23T02:19:04;51.33;;;28.43;;
19043;SDS011;9654;52.302;8.120;2023-04-23T02:21:31;50.37;;;27.83;;
19043;SDS011;9654;52.302;8.120;2023-04-23T02:23:58;49.27;;;27.83;;
19043;SDS011;9654;52.302;8.120;2023-04-23T02:26:25;50.37;;;28.27;;
19043;SDS011;9654;52.302;8.120;2023-04-23T02:28:53;52.23;;;29.37;;
19043;SDS011;9654;52.302;8.120;2023-04-23T02:31:21;51.87;;;28.30;;
19043;SDS011;9654;52.302;8.120;2023-04-23T02:33:48;52.40;;;28.37;;
19043;SDS011;9654;52.302;8.120;2023-04-23T02:36:15;49.40;;;28.30;;
19043;SDS011;9654;52.302;8.120;2023-04-23T02:38:42;55.37;;;29.87;;
19043;SDS011;9654;52.302;8.120;2023-04-23T02:41:11;54.63;;;29.13;;
19043;SDS011;9654;52.302;8.120;2023-04-23T02:43:38;54.70;;;28.77;;
19043;SDS011;9654;52.302;8.120;2023-04-23T02:46:05;55.13;;;29.50;;
19043;SDS011;9654;52.302;8.120;2023-04-23T02:48:35;56.30;;;29.40;;
19043;SDS011;9654;52.302;8.120;2023-04-23T02:51:03;55.37;;;30.20;;
19043;SDS011;9654;52.302;8.120;2023-04-23T02:53:30;56.77;;;29.80;;
19043;SDS011;9654;52.302;8.120;2023-04-23T02:55:57;58.10;;;31.13;;
19043;SDS011;9654;52.302;8.120;2023-04-23T02:58:24;56.93;;;30.23;;
19043;SDS011;9654;52.302;8.120;2023-04-23T03:00:50;62.17;;;30.93;;
19043;SDS011;9654;52.302;8.120;2023-04-23T03:03:17;57.63;;;31.77;;
19043;SDS011;9654;52.302;8.120;2023-04-23T03:05:46;58.87;;;31.03;;
19043;SDS011;9654;52.302;8.120;2023-04-23T03:08:13;53.20;;;29.47;;
19043;SDS011;9654;52.302;8.120;2023-04-23T03:10:40;59.13;;;31.90;;
19043;SDS011;9654;52.302;8.120;2023-04-23T03:13:06;62.37;;;32.13;;
19043;SDS011;9654;52.302;8.120;2023-04-23T03:15:33;61.23;;;33.43;;
19043;SDS011;9654;52.302;8.120;2023-04-23T03:18:00;62.80;;;32.67;;
19043;SDS011;9654;52.302;8.120;2023-04-23T03:20:28;66.23;;;33.93;;
19043;SDS011;9654;52.302;8.120;2023-04-23T03:22:56;64.40;;;32.47;;
19043;SDS011;9654;52.302;8.120;2023-04-23T03:25:23;64.30;;;33.17;;
19043;SDS011;9654;52.302;8.120;2023-04-23T03:27:50;68.80;;;34.97;;
19043;SDS011;9654;52.302;8.120;2023-04-23T03:30:17;65.90;;;33.50;;
19043;SDS011;9654;52.302;8.120;2023-04-23T03:32:44;65.67;;;34.50;;
19043;SDS011;9654;52.302;8.120;2023-04-23T03:35:11;66.27;;;33.33;;
19043;SDS011;9654;52.302;8.120;2023-04-23T03:37:37;67.53;;;35.57;;
19043;SDS011;9654;52.302;8.120;2023-04-23T03:40:06;72.13;;;36.47;;
19043;SDS011;9654;52.302;8.120;2023-04-23T03:42:34;70.07;;;35.43;;
19043;SDS011;9654;52.302;8.120;2023-04-23T03:45:01;71.93;;;36.97;;
19043;SDS011;9654;52.302;8.120;2023-04-23T03:47:28;76.47;;;38.70;;
19043;SDS011;9654;52.302;8.120;2023-04-23T03:49:55;75.90;;;38.47;;
19043;SDS011;9654;52.302;8.120;2023-04-23T03:52:22;77.07;;;40.17;;
19043;SDS011;9654;52.302;8.120;2023-04-23T03:54:49;75.33;;;36.80;;
19043;SDS011;9654;52.302;8.120;2023-04-23T03:57:17;77.10;;;37.80;;
19043;SDS011;9654;52.302;8.120;2023-04-23T03:59:44;82.20;;;39.20;;
19043;SDS011;9654;52.302;8.120;2023-04-23T04:02:10;81.13;;;39.33;;
19043;SDS011;9654;52.302;8.120;2023-04-23T04:04:37;81.73;;;39.87;;
19043;SDS011;9654;52.302;8.120;2023-04-23T04:07:04;77.93;;;38.80;;
19043;SDS011;9654;52.302;8.120;2023-04-23T04:09:31;81.47;;;40.70;;
19043;SDS011;9654;52.302;8.120;2023-04-23T04:11:58;83.00;;;40.57;;
19043;SDS011;9654;52.302;8.120;2023-04-23T04:14:27;87.23;;;41.17;;
19043;SDS011;9654;52.302;8.120;2023-04-23T04:16:53;74.77;;;36.93;;
19043;SDS011;9654;52.302;8.120;2023-04-23T04:19:20;81.07;;;38.90;;
19043;SDS011;9654;52.302;8.120;2023-04-23T04:21:47;79.57;;;37.93;;
19043;SDS011;9654;52.302;8.120;2023-04-23T04:24:15;80.73;;;39.67;;
19043;SDS011;9654;52.302;8.120;2023-04-23T04:26:42;80.80;;;38.17;;
19043;SDS011;9654;52.302;8.120;2023-04-23T04:29:09;86.77;;;40.47;;
19043;SDS011;9654;52.302;8.120;2023-04-23T04:31:38;74.83;;;37.77;;
19043;SDS011;9654;52.302;8.120;2023-04-23T04:34:05;71.57;;;36.77;;
19043;SDS011;9654;52.302;8.120;2023-04-23T04:36:33;80.43;;;39.20;;
19043;SDS011;9654;52.302;8.120;2023-04-23T04:38:59;78.03;;;37.80;;
19043;SDS011;9654;52.302;8.120;2023-04-23T04:43:55;82.40;;;39.27;;
19043;SDS011;9654;52.302;8.120;2023-04-23T04:46:22;76.80;;;38.17;;
19043;SDS011;9654;52.302;8.120;2023-04-23T04:48:51;78.77;;;38.73;;
19043;SDS011;9654;52.302;8.120;2023-04-23T04:51:18;76.03;;;36.77;;
19043;SDS011;9654;52.302;8.120;2023-04-23T04:53:45;77.83;;;37.73;;
19043;SDS011;9654;52.302;8.120;2023-04-23T04:56:12;72.67;;;36.53;;
19043;SDS011;9654;52.302;8.120;2023-04-23T04:58:38;71.83;;;35.97;;
19043;SDS011;9654;52.302;8.120;2023-04-23T05:01:05;79.67;;;39.10;;
19043;SDS011;9654;52.302;8.120;2023-04-23T05:03:33;82.17;;;38.93;;
19043;SDS011;9654;52.302;8.120;2023-04-23T05:06:02;82.60;;;39.80;;
19043;SDS011;9654;52.302;8.120;2023-04-23T05:08:29;79.27;;;39.57;;
19043;SDS011;9654;52.302;8.120;2023-04-23T05:10:56;81.30;;;39.83;;
19043;SDS011;9654;52.302;8.120;2023-04-23T05:13:24;85.33;;;38.97;;
19043;SDS011;9654;52.302;8.120;2023-04-23T05:15:51;87.80;;;39.97;;
19043;SDS011;9654;52.302;8.120;2023-04-23T05:18:18;84.07;;;41.60;;
19043;SDS011;9654;52.302;8.120;2023-04-23T05:20:45;89.10;;;42.00;;
19043;SDS011;9654;52.302;8.120;2023-04-23T05:23:13;85.30;;;41.47;;
19043;SDS011;9654;52.302;8.120;2023-04-23T05:25:40;81.23;;;40.07;;
19043;SDS011;9654;52.302;8.120;2023-04-23T05:28:07;91.90;;;41.37;;
19043;SDS011;9654;52.302;8.120;2023-04-23T05:30:34;88.30;;;39.83;;
19043;SDS011;9654;52.302;8.120;2023-04-23T05:33:01;88.43;;;40.20;;
19043;SDS011;9654;52.302;8.120;2023-04-23T05:35:27;89.60;;;42.70;;
19043;SDS011;9654;52.302;8.120;2023-04-23T05:37:55;86.50;;;41.30;;
19043;SDS011;9654;52.302;8.120;2023-04-23T05:40:24;88.63;;;42.17;;
19043;SDS011;9654;52.302;8.120;2023-04-23T05:42:50;86.93;;;42.93;;
19043;SDS011;9654;52.302;8.120;2023-04-23T05:45:17;89.47;;;39.73;;
19043;SDS011;9654;52.302;8.120;2023-04-23T05:47:45;88.47;;;40.00;;
19043;SDS011;9654;52.302;8.120;2023-04-23T05:50:11;87.87;;;40.03;;
19043;SDS011;9654;52.302;8.120;2023-04-23T05:52:38;87.53;;;40.30;;
19043;SDS011;9654;52.302;8.120;2023-04-23T05:55:05;83.90;;;39.10;;
19043;SDS011;9654;52.302;8.120;2023-04-23T05:57:34;90.77;;;41.50;;
19043;SDS011;9654;52.302;8.120;2023-04-23T06:00:02;89.30;;;41.23;;
19043;SDS011;9654;52.302;8.120;2023-04-23T06:02:30;88.67;;;40.50;;
19043;SDS011;9654;52.302;8.120;2023-04-23T06:04:57;89.00;;;40.90;;
19043;SDS011;9654;52.302;8.120;2023-04-23T06:07:24;92.37;;;41.47;;
19043;SDS011;9654;52.302;8.120;2023-04-23T06:09:51;89.67;;;41.20;;
19043;SDS011;9654;52.302;8.120;2023-04-23T06:12:18;91.73;;;40.50;;
19043;SDS011;9654;52.302;8.120;2023-04-23T06:14:46;87.33;;;40.90;;
19043;SDS011;9654;52.302;8.120;2023-04-23T06:17:13;92.47;;;41.50;;
19043;SDS011;9654;52.302;8.120;2023-04-23T06:19:39;88.47;;;41.93;;
19043;SDS011;9654;52.302;8.120;2023-04-23T06:22:06;89.20;;;40.83;;
19043;SDS011;9654;52.302;8.120;2023-04-23T06:24:34;87.23;;;41.17;;
19043;SDS011;9654;52.302;8.120;2023-04-23T06:27:00;93.23;;;41.30;;
19043;SDS011;9654;52.302;8.120;2023-04-23T06:29:28;94.67;;;42.83;;
19043;SDS011;9654;52.302;8.120;2023-04-23T06:31:56;92.03;;;40.00;;
19043;SDS011;9654;52.302;8.120;2023-04-23T06:34:26;85.53;;;41.97;;
19043;SDS011;9654;52.302;8.120;2023-04-23T06:36:52;77.90;;;36.77;;
19043;SDS011;9654;52.302;8.120;2023-04-23T06:39:19;85.37;;;40.27;;
19043;SDS011;9654;52.302;8.120;2023-04-23T06:41:46;86.83;;;40.23;;
19043;SDS011;9654;52.302;8.120;2023-04-23T06:44:13;82.17;;;39.33;;
19043;SDS011;9654;52.302;8.120;2023-04-23T06:46:41;79.03;;;37.67;;
19043;SDS011;9654;52.302;8.120;2023-04-23T06:49:12;78.77;;;38.83;;
19043;SDS011;9654;52.302;8.120;2023-04-23T06:51:39;77.80;;;37.50;;
19043;SDS011;9654;52.302;8.120;2023-04-23T06:54:09;71.87;;;36.23;;
19043;SDS011;9654;52.302;8.120;2023-04-23T06:56:35;71.13;;;36.37;;
19043;SDS011;9654;52.302;8.120;2023-04-23T06:59:02;77.83;;;37.33;;
19043;SDS011;9654;52.302;8.120;2023-04-23T07:01:33;71.83;;;36.07;;
19043;SDS011;9654;52.302;8.120;2023-04-23T07:04:02;74.70;;;36.27;;
19043;SDS011;9654;52.302;8.120;2023-04-23T07:06:31;71.50;;;34.57;;
19043;SDS011;9654;52.302;8.120;2023-04-23T07:08:58;68.37;;;33.37;;
19043;SDS011;9654;52.302;8.120;2023-04-23T07:11:27;63.33;;;32.07;;
19043;SDS011;9654;52.302;8.120;2023-04-23T07:13:58;65.63;;;33.90;;
19043;SDS011;9654;52.302;8.120;2023-04-23T07:16:27;65.63;;;34.00;;
19043;SDS011;9654;52.302;8.120;2023-04-23T07:18:57;60.03;;;31.87;;
19043;SDS011;9654;52.302;8.120;2023-04-23T07:21:25;56.23;;;29.80;;
19043;SDS011;9654;52.302;8.120;2023-04-23T07:23:54;47.83;;;25.30;;
19043;SDS011;9654;52.302;8.120;2023-04-23T07:26:24;48.60;;;24.80;;
19043;SDS011;9654;52.302;8.120;2023-04-23T07:28:52;47.47;;;27.23;;
19043;SDS011;9654;52.302;8.120;2023-04-23T07:31:19;40.00;;;22.80;;
19043;SDS011;9654;52.302;8.120;2023-04-23T07:33:48;40.90;;;22.77;;
19043;SDS011;9654;52.302;8.120;2023-04-23T07:36:15;41.07;;;22.37;;
19043;SDS011;9654;52.302;8.120;2023-04-23T07:38:41;38.40;;;22.03;;
19043;SDS011;9654;52.302;8.120;2023-04-23T07:41:10;40.40;;;23.50;;
19043;SDS011;9654;52.302;8.120;2023-04-23T07:43:37;39.07;;;21.63;;
19043;SDS011;9654;52.302;8.120;2023-04-23T07:46:04;41.53;;;21.50;;
19043;SDS011;9654;52.302;8.120;2023-04-23T07:48:31;36.40;;;20.57;;
19043;SDS011;9654;52.302;8.120;2023-04-23T07:50:59;35.30;;;19.60;;
19043;SDS011;9654;52.302;8.120;2023-04-23T07:53:26;32.03;;;18.67;;
19043;SDS011;9654;52.302;8.120;2023-04-23T07:55:53;29.97;;;17.43;;
19043;SDS011;9654;52.302;8.120;2023-04-23T07:58:23;25.93;;;16.13;;
19043;SDS011;9654;52.302;8.120;2023-04-23T08:00:50;25.10;;;15.13;;
19043;SDS011;9654;52.302;8.120;2023-04-23T08:03:17;28.03;;;16.20;;
19043;SDS011;9654;52.302;8.120;2023-04-23T08:05:44;25.10;;;15.53;;
19043;SDS011;9654;52.302;8.120;2023-04-23T08:08:11;26.77;;;16.37;;
19043;SDS011;9654;52.302;8.120;2023-04-23T08:10:38;22.93;;;14.93;;
19043;SDS011;9654;52.302;8.120;2023-04-23T08:13:05;23.10;;;14.77;;
19043;SDS011;9654;52.302;8.120;2023-04-23T08:15:33;23.73;;;14.23;;
19043;SDS011;9654;52.302;8.120;2023-04-23T08:18:00;22.80;;;14.53;;
19043;SDS011;9654;52.302;8.120;2023-04-23T08:20:28;22.63;;;15.20;;
19043;SDS011;9654;52.302;8.120;2023-04-23T08:22:56;24.90;;;14.50;;
19043;SDS011;9654;52.302;8.120;2023-04-23T08:25:23;24.87;;;15.83;;
19043;SDS011;9654;52.302;8.120;2023-04-23T08:27:50;25.07;;;14.93;;
19043;SDS011;9654;52.302;8.120;2023-04-23T08:30:17;23.73;;;15.03;;
19043;SDS011;9654;52.302;8.120;2023-04-23T08:32:45;23.77;;;15.00;;
19043;SDS011;9654;52.302;8.120;2023-04-23T08:35:15;27.60;;;16.00;;
19043;SDS011;9654;52.302;8.120;2023-04-23T08:37:41;21.70;;;14.37;;
19043;SDS011;9654;52.302;8.120;2023-04-23T08:40:08;25.50;;;14.53;;
19043;SDS011;9654;52.302;8.120;2023-04-23T08:42:36;22.13;;;14.67;;
19043;SDS011;9654;52.302;8.120;2023-04-23T08:45:07;26.40;;;16.37;;
19043;SDS011;9654;52.302;8.120;2023-04-23T08:47:34;26.63;;;16.30;;
19043;SDS011;9654;52.302;8.120;2023-04-23T08:50:08;25.10;;;15.57;;
19043;SDS011;9654;52.302;8.120;2023-04-23T08:52:37;20.60;;;13.53;;
19043;SDS011;9654;52.302;8.120;2023-04-23T08:55:07;20.00;;;12.67;;
19043;SDS011;9654;52.302;8.120;2023-04-23T08:57:36;15.77;;;11.53;;
19043;SDS011;9654;52.302;8.120;2023-04-23T09:00:05;20.77;;;12.87;;
19043;SDS011;9654;52.302;8.120;2023-04-23T09:02:34;20.67;;;12.73;;
19043;SDS011;9654;52.302;8.120;2023-04-23T09:05:01;20.13;;;12.93;;
19043;SDS011;9654;52.302;8.120;2023-04-23T09:07:30;24.87;;;14.57;;
19043;SDS011;9654;52.302;8.120;2023-04-23T09:09:57;20.83;;;13.57;;
19043;SDS011;9654;52.302;8.120;2023-04-23T09:12:24;19.50;;;12.80;;
19043;SDS011;9654;52.302;8.120;2023-04-23T09:14:52;16.57;;;12.33;;
19043;SDS011;9654;52.302;8.120;2023-04-23T09:17:18;18.47;;;11.77;;
19043;SDS011;9654;52.302;8.120;2023-04-23T09:19:47;16.20;;;11.47;;
19043;SDS011;9654;52.302;8.120;2023-04-23T09:22:30;16.97;;;12.07;;
19043;SDS011;9654;52.302;8.120;2023-04-23T09:25:04;16.70;;;12.13;;
19043;SDS011;9654;52.302;8.120;2023-04-23T09:27:31;17.10;;;12.30;;
19043;SDS011;9654;52.302;8.120;2023-04-23T09:29:59;16.67;;;12.27;;
19043;SDS011;9654;52.302;8.120;2023-04-23T09:32:30;15.47;;;12.30;;
19043;SDS011;9654;52.302;8.120;2023-04-23T09:34:57;18.63;;;12.33;;
19043;SDS011;9654;52.302;8.120;2023-04-23T09:37:24;19.20;;;11.73;;
19043;SDS011;9654;52.302;8.120;2023-04-23T09:39:53;15.77;;;10.57;;
19043;SDS011;9654;52.302;8.120;2023-04-23T09:42:23;16.00;;;10.77;;
19043;SDS011;9654;52.302;8.120;2023-04-23T09:44:55;17.17;;;11.40;;
19043;SDS011;9654;52.302;8.120;2023-04-23T09:47:22;19.40;;;11.60;;
19043;SDS011;9654;52.302;8.120;2023-04-23T09:49:49;14.07;;;10.53;;
19043;SDS011;9654;52.302;8.120;2023-04-23T09:52:16;14.93;;;9.67;;
19043;SDS011;9654;52.302;8.120;2023-04-23T09:54:43;14.63;;;10.50;;
19043;SDS011;9654;52.302;8.120;2023-04-23T09:57:12;13.43;;;9.70;;
19043;SDS011;9654;52.302;8.120;2023-04-23T09:59:39;12.53;;;9.30;;
19043;SDS011;9654;52.302;8.120;2023-04-23T10:02:06;16.73;;;9.60;;
19043;SDS011;9654;52.302;8.120;2023-04-23T10:04:34;16.33;;;10.10;;
19043;SDS011;9654;52.302;8.120;2023-04-23T10:07:03;15.07;;;9.30;;
19043;SDS011;9654;52.302;8.120;2023-04-23T10:09:32;12.97;;;9.30;;
19043;SDS011;9654;52.302;8.120;2023-04-23T10:12:00;10.03;;;8.13;;
19043;SDS011;9654;52.302;8.120;2023-04-23T10:14:29;13.57;;;8.40;;
19043;SDS011;9654;52.302;8.120;2023-04-23T10:16:56;9.97;;;8.00;;
19043;SDS011;9654;52.302;8.120;2023-04-23T10:19:24;12.00;;;8.03;;
19043;SDS011;9654;52.302;8.120;2023-04-23T10:21:53;12.23;;;8.17;;
19043;SDS011;9654;52.302;8.120;2023-04-23T10:24:24;10.77;;;7.77;;
19043;SDS011;9654;52.302;8.120;2023-04-23T10:26:53;12.77;;;7.53;;
19043;SDS011;9654;52.302;8.120;2023-04-23T10:29:25;9.93;;;6.93;;
19043;SDS011;9654;52.302;8.120;2023-04-23T10:31:55;11.30;;;6.73;;
19043;SDS011;9654;52.302;8.120;2023-04-23T10:34:24;8.80;;;6.47;;
19043;SDS011;9654;52.302;8.120;2023-04-23T10:36:53;10.17;;;6.33;;
19043;SDS011;9654;52.302;8.120;2023-04-23T10:39:21;10.33;;;5.60;;
19043;SDS011;9654;52.302;8.120;2023-04-23T10:41:50;10.10;;;4.97;;
19043;SDS011;9654;52.302;8.120;2023-04-23T10:44:18;6.83;;;4.57;;
19043;SDS011;9654;52.302;8.120;2023-04-23T10:46:49;9.27;;;4.87;;
19043;SDS011;9654;52.302;8.120;2023-04-23T10:49:20;8.40;;;4.40;;
19043;SDS011;9654;52.302;8.120;2023-04-23T10:51:48;7.33;;;3.53;;
19043;SDS011;9654;52.302;8.120;2023-04-23T10:54:25;6.77;;;3.77;;
19043;SDS011;9654;52.302;8.120;2023-04-23T10:56:56;5.10;;;3.50;;
19043;SDS011;9654;52.302;8.120;2023-04-23T10:59:25;4.53;;;3.80;;
19043;SDS011;9654;52.302;8.120;2023-04-23T11:01:54;7.33;;;4.37;;
19043;SDS011;9654;52.302;8.120;2023-04-23T11:04:24;6.40;;;3.87;;
19043;SDS011;9654;52.302;8.120;2023-04-23T11:06:53;4.47;;;3.63;;
19043;SDS011;9654;52.302;8.120;2023-04-23T11:09:31;6.57;;;3.80;;
19043;SDS011;9654;52.302;8.120;2023-04-23T11:12:07;8.20;;;3.90;;
19043;SDS011;9654;52.302;8.120;2023-04-23T11:14:36;5.07;;;3.50;;
19043;SDS011;9654;52.302;8.120;2023-04-23T11:17:09;6.43;;;3.33;;
19043;SDS011;9654;52.302;8.120;2023-04-23T11:19:38;5.73;;;3.63;;
19043;SDS011;9654;52.302;8.120;2023-04-23T11:22:06;3.97;;;3.27;;
19043;SDS011;9654;52.302;8.120;2023-04-23T11:24:39;3.93;;;3.30;;
19043;SDS011;9654;52.302;8.120;2023-04-23T11:27:07;4.30;;;3.00;;
19043;SDS011;9654;52.302;8.120;2023-04-23T11:29:35;4.60;;;2.57;;
19043;SDS011;9654;52.302;8.120;2023-04-23T11:32:02;5.23;;;2.47;;
19043;SDS011;9654;52.302;8.120;2023-04-23T11:34:34;4.97;;;2.93;;
19043;SDS011;9654;52.302;8.120;2023-04-23T11:37:03;4.70;;;2.50;;
19043;SDS011;9654;52.302;8.120;2023-04-23T11:39:30;3.87;;;2.60;;
19043;SDS011;9654;52.302;8.120;2023-04-23T11:41:56;7.97;;;2.83;;
19043;SDS011;9654;52.302;8.120;2023-04-23T11:44:26;7.67;;;3.33;;
19043;SDS011;9654;52.302;8.120;2023-04-23T11:46:53;5.50;;;3.50;;
19043;SDS011;9654;52.302;8.120;2023-04-23T11:49:20;5.50;;;3.57;;
19043;SDS011;9654;52.302;8.120;2023-04-23T11:51:47;3.07;;;2.77;;
19043;SDS011;9654;52.302;8.120;2023-04-23T11:54:15;6.80;;;3.10;;
19043;SDS011;9654;52.302;8.120;2023-04-23T11:56:43;3.47;;;2.80;;
19043;SDS011;9654;52.302;8.120;2023-04-23T11:59:09;4.60;;;3.23;;
19043;SDS011;9654;52.302;8.120;2023-04-23T12:01:43;6.70;;;3.43;;
19043;SDS011;9654;52.302;8.120;2023-04-23T12:04:11;7.80;;;3.33;;
19043;SDS011;9654;52.302;8.120;2023-04-23T12:06:39;4.60;;;2.60;;
19043;SDS011;9654;52.302;8.120;2023-04-23T12:09:07;6.10;;;2.47;;
19043;SDS011;9654;52.302;8.120;2023-04-23T12:11:36;4.93;;;3.10;;
19043;SDS011;9654;52.302;8.120;2023-04-23T12:14:04;3.97;;;2.73;;
19043;SDS011;9654;52.302;8.120;2023-04-23T12:16:32;5.10;;;2.63;;
19043;SDS011;9654;52.302;8.120;2023-04-23T12:19:00;3.13;;;2.30;;
19043;SDS011;9654;52.302;8.120;2023-04-23T12:21:27;6.57;;;3.03;;
19043;SDS011;9654;52.302;8.120;2023-04-23T12:23:55;9.90;;;3.30;;
19043;SDS011;9654;52.302;8.120;2023-04-23T12:26:23;8.17;;;3.60;;
19043;SDS011;9654;52.302;8.120;2023-04-23T12:28:52;6.93;;;3.10;;
19043;SDS011;9654;52.302;8.120;2023-04-23T12:31:23;4.67;;;2.90;;
19043;SDS011;9654;52.302;8.120;2023-04-23T12:33:57;4.23;;;2.30;;
19043;SDS011;9654;52.302;8.120;2023-04-23T12:36:28;5.20;;;2.40;;
19043;SDS011;9654;52.302;8.120;2023-04-23T12:41:43;4.97;;;2.40;;
19043;SDS011;9654;52.302;8.120;2023-04-23T12:44:11;6.20;;;2.73;;
19043;SDS011;9654;52.302;8.120;2023-04-23T12:46:38;6.00;;;2.97;;
19043;SDS011;9654;52.302;8.120;2023-04-23T12:49:05;6.70;;;2.93;;
19043;SDS011;9654;52.302;8.120;2023-04-23T12:51:32;7.17;;;2.73;;
19043;SDS011;9654;52.302;8.120;2023-04-23T12:53:59;4.90;;;3.10;;
19043;SDS011;9654;52.302;8.120;2023-04-23T12:56:25;4.03;;;2.70;;
19043;SDS011;9654;52.302;8.120;2023-04-23T12:58:52;6.47;;;3.20;;
19043;SDS011;9654;52.302;8.120;2023-04-23T13:01:20;5.63;;;2.77;;
19043;SDS011;9654;52.302;8.120;2023-04-23T13:03:47;6.80;;;2.70;;
19043;SDS011;9654;52.302;8.120;2023-04-23T13:06:14;3.30;;;2.50;;
19043;SDS011;9654;52.302;8.120;2023-04-23T13:08:41;11.00;;;3.00;;
19043;SDS011;9654;52.302;8.120;2023-04-23T13:11:07;5.00;;;2.70;;
19043;SDS011;9654;52.302;8.120;2023-04-23T13:13:35;2.57;;;2.30;;
19043;SDS011;9654;52.302;8.120;2023-04-23T13:16:02;3.77;;;2.60;;
19043;SDS011;9654;52.302;8.120;2023-04-23T13:18:30;6.63;;;2.33;;
19043;SDS011;9654;52.302;8.120;2023-04-23T13:20:56;5.37;;;2.43;;
19043;SDS011;9654;52.302;8.120;2023-04-23T13:23:23;4.70;;;2.20;;
19043;SDS011;9654;52.302;8.120;2023-04-23T13:25:50;4.83;;;2.07;;
19043;SDS011;9654;52.302;8.120;2023-04-23T13:28:17;2.20;;;1.47;;
19043;SDS011;9654;52.302;8.120;2023-04-23T13:30:44;4.87;;;2.03;;
19043;SDS011;9654;52.302;8.120;2023-04-23T13:33:10;4.33;;;1.60;;
19043;SDS011;9654;52.302;8.120;2023-04-23T13:35:38;2.50;;;1.23;;
19043;SDS011;9654;52.302;8.120;2023-04-23T13:38:05;3.93;;;1.57;;
19043;SDS011;9654;52.302;8.120;2023-04-23T13:40:32;2.37;;;1.40;;
19043;SDS011;9654;52.302;8.120;2023-04-23T13:42:59;6.87;;;1.63;;
19043;SDS011;9654;52.302;8.120;2023-04-23T13:45:26;2.20;;;1.27;;
19043;SDS011;9654;52.302;8.120;2023-04-23T13:47:53;4.23;;;1.43;;
19043;SDS011;9654;52.302;8.120;2023-04-23T13:50:19;5.23;;;1.50;;
19043;SDS011;9654;52.302;8.120;2023-04-23T13:52:48;1.80;;;1.03;;
19043;SDS011;9654;52.302;8.120;2023-04-23T13:55:14;3.80;;;1.60;;
19043;SDS011;9654;52.302;8.120;2023-04-23T13:57:41;6.63;;;1.70;;
19043;SDS011;9654;52.302;8.120;2023-04-23T14:00:08;2.47;;;1.10;;
19043;SDS011;9654;52.302;8.120;2023-04-23T14:02:36;2.97;;;1.40;;
19043;SDS011;9654;52.302;8.120;2023-04-23T14:05:03;5.27;;;2.20;;
19043;SDS011;9654;52.302;8.120;2023-04-23T14:07:32;6.70;;;2.20;;
19043;SDS011;9654;52.302;8.120;2023-04-23T14:10:02;8.27;;;2.33;;
19043;SDS011;9654;52.302;8.120;2023-04-23T14:12:29;5.40;;;2.13;;
19043;SDS011;9654;52.302;8.120;2023-04-23T14:14:56;3.20;;;2.10;;
19043;SDS011;9654;52.302;8.120;2023-04-23T14:17:23;3.93;;;2.00;;
19043;SDS011;9654;52.302;8.120;2023-04-23T14:19:50;2.67;;;2.10;;
19043;SDS011;9654;52.302;8.120;2023-04-23T14:22:16;2.77;;;1.50;;
19043;SDS011;9654;52.302;8.120;2023-04-23T14:24:44;1.50;;;1.37;;
19043;SDS011;9654;52.302;8.120;2023-04-23T14:27:13;5.10;;;1.40;;
19043;SDS011;9654;52.302;8.120;2023-04-23T14:29:40;2.87;;;1.57;;
19043;SDS011;9654;52.302;8.120;2023-04-23T14:32:11;3.70;;;1.43;;
19043;SDS011;9654;52.302;8.120;2023-04-23T14:34:38;3.20;;;1.67;;
19043;SDS011;9654;52.302;8.120;2023-04-23T14:37:05;3.53;;;1.60;;
19043;SDS011;9654;52.302;8.120;2023-04-23T14:39:32;4.33;;;1.80;;
19043;SDS011;9654;52.302;8.120;2023-04-23T14:41:59;4.40;;;2.00;;
19043;SDS011;9654;52.302;8.120;2023-04-23T14:44:28;2.70;;;1.53;;
19043;SDS011;9654;52.302;8.120;2023-04-23T14:46:54;6.17;;;2.17;;
19043;SDS011;9654;52.302;8.120;2023-04-23T14:49:23;16.70;;;3.50;;
19043;SDS011;9654;52.302;8.120;2023-04-23T14:51:50;10.43;;;2.77;;